Time;durP1;ratioP1;P1;durP2;ratioP2;P2;SDS_P1;SDS_P2;PMS_P1;PMS_P2;Temp;Humidity;BMP_temperature;BMP_pressure;BME280_temperature;BME280_humidity;BME280_pressure;Samples;Min_cycle;Max_cycle;Signal;HPM_P1;HPM_P2
2022/04/12 00:01:19;;;;;;;1.43;1.17;;;5.40;69.20;;;;;;5005613;28;20219;-77
2022/04/12 00:03:44;;;;;;;2.33;0.87;;;5.40;69.40;;;;;;5007036;28;20185;-77
2022/04/12 00:06:10;;;;;;;1.80;0.80;;;5.30;69.70;;;;;;5006164;28;20193;-77
2022/04/12 00:08:36;;;;;;;3.80;1.20;;;5.30;69.60;;;;;;5005338;28;20234;-77
2022/04/12 00:11:02;;;;;;;1.00;1.00;;;5.30;69.90;;;;;;5005673;28;20214;-78
2022/04/12 00:13:28;;;;;;;1.00;1.00;;;5.20;70.20;;;;;;5010411;28;20213;-77
2022/04/12 00:15:53;;;;;;;1.10;1.10;;;5.20;70.00;;;;;;5009647;28;20632;-78
2022/04/12 00:21:04;;;;;;;1.33;1.07;;;5.20;69.50;;;;;;5013157;28;20187;-79
2022/04/12 00:23:30;;;;;;;0.77;0.73;;;5.30;69.60;;;;;;5014631;28;20667;-79
2022/04/12 00:25:56;;;;;;;1.83;0.90;;;5.20;69.70;;;;;;5013739;28;20231;-79
2022/04/12 00:28:22;;;;;;;0.90;0.90;;;5.30;69.50;;;;;;5008726;28;20220;-79
2022/04/12 00:30:48;;;;;;;5.17;1.23;;;5.30;69.60;;;;;;5015785;28;20188;-79
2022/04/12 00:33:14;;;;;;;1.13;1.13;;;5.30;69.80;;;;;;5010832;28;20298;-79
2022/04/12 00:35:40;;;;;;;0.90;0.90;;;5.20;69.90;;;;;;5010962;28;20192;-79
2022/04/12 00:38:17;;;;;;;2.40;1.10;;;5.20;70.20;;;;;;5013383;28;20200;-79
2022/04/12 00:40:44;;;;;;;1.47;0.90;;;5.20;69.90;;;;;;5014130;28;20259;-79
2022/04/12 00:43:10;;;;;;;1.87;1.00;;;5.10;70.00;;;;;;5016218;28;20188;-79
2022/04/12 00:45:36;;;;;;;1.13;1.13;;;5.10;70.30;;;;;;5016851;28;20184;-79
2022/04/12 00:48:02;;;;;;;0.73;0.73;;;5.20;70.00;;;;;;5011859;28;20762;-79
2022/04/12 00:50:28;;;;;;;1.50;1.40;;;5.20;70.10;;;;;;5014299;28;20177;-79
2022/04/12 00:52:56;;;;;;;1.40;1.30;;;5.20;70.20;;;;;;5014048;28;20224;-79
2022/04/12 00:55:21;;;;;;;1.07;1.00;;;5.10;70.30;;;;;;5013826;28;20666;-79
2022/04/12 00:57:48;;;;;;;1.20;1.20;;;5.10;70.00;;;;;;5011151;28;20246;-79
2022/04/12 01:00:16;;;;;;;1.10;1.10;;;5.10;70.30;;;;;;5018378;28;20189;-78
2022/04/12 01:02:42;;;;;;;1.40;1.10;;;5.10;70.30;;;;;;5018955;28;20246;-79
2022/04/12 01:05:08;;;;;;;2.53;0.90;;;5.10;70.30;;;;;;5022461;28;20220;-78
2022/04/12 01:07:35;;;;;;;1.07;0.97;;;5.10;70.40;;;;;;5012815;28;20275;-79
2022/04/12 01:10:01;;;;;;;2.93;1.13;;;5.10;70.40;;;;;;5014727;28;20189;-79
2022/04/12 01:12:28;;;;;;;1.20;1.10;;;5.10;70.50;;;;;;5014485;28;20189;-79
2022/04/12 01:14:54;;;;;;;0.90;0.90;;;5.00;70.50;;;;;;5011236;28;20176;-79
2022/04/12 01:17:20;;;;;;;1.60;1.00;;;5.00;70.60;;;;;;5014981;28;20181;-79
2022/04/12 01:19:46;;;;;;;1.20;1.10;;;5.00;70.60;;;;;;5015259;28;20722;-77
2022/04/12 01:22:24;;;;;;;1.03;1.03;;;5.00;70.70;;;;;;5012568;28;20682;-78
2022/04/12 01:24:49;;;;;;;0.80;0.80;;;5.00;70.80;;;;;;5016385;28;20183;-78
2022/04/12 01:27:15;;;;;;;3.53;1.20;;;4.90;70.90;;;;;;5013525;28;20189;-77
2022/04/12 01:29:41;;;;;;;1.60;1.60;;;4.90;70.90;;;;;;5017922;28;20216;-78
2022/04/12 01:32:07;;;;;;;0.80;0.80;;;4.80;71.30;;;;;;5013744;28;20185;-77
2022/04/12 01:34:37;;;;;;;0.90;0.90;;;4.80;71.20;;;;;;5011453;28;20227;-79
2022/04/12 01:37:07;;;;;;;1.10;1.10;;;4.80;71.30;;;;;;5015598;28;20959;-78
2022/04/12 01:39:33;;;;;;;1.37;1.23;;;4.80;71.40;;;;;;5013025;28;20263;-78
2022/04/12 01:41:59;;;;;;;1.47;1.37;;;4.80;71.40;;;;;;5015029;28;20176;-78
2022/04/12 01:44:25;;;;;;;1.00;0.93;;;4.80;71.60;;;;;;5011755;28;20555;-78
2022/04/12 01:46:51;;;;;;;1.73;1.50;;;4.80;71.40;;;;;;5012889;28;20646;-78
2022/04/12 01:49:17;;;;;;;0.80;0.67;;;4.70;71.40;;;;;;5013885;28;20212;-77
2022/04/12 01:51:43;;;;;;;1.03;1.03;;;4.80;71.40;;;;;;5013404;28;20214;-78
2022/04/12 01:54:09;;;;;;;1.10;1.10;;;4.80;71.40;;;;;;5012762;28;20248;-79
2022/04/12 01:56:35;;;;;;;1.07;1.07;;;4.80;71.20;;;;;;5016712;28;20185;-78
2022/04/12 01:59:05;;;;;;;2.00;1.00;;;4.80;71.20;;;;;;5015668;28;20835;-78
2022/04/12 02:01:30;;;;;;;5.40;0.90;;;4.80;71.30;;;;;;5012129;28;20181;-78
2022/04/12 02:03:56;;;;;;;1.33;1.23;;;4.80;71.20;;;;;;5010571;28;20196;-78
2022/04/12 02:06:22;;;;;;;4.43;1.30;;;4.80;71.20;;;;;;5006286;28;20327;-78
2022/04/12 02:08:48;;;;;;;2.93;0.93;;;4.80;71.30;;;;;;5006325;28;20191;-78
2022/04/12 02:11:14;;;;;;;0.90;0.90;;;4.70;71.30;;;;;;5012223;28;20187;-78
2022/04/12 02:13:40;;;;;;;0.87;0.87;;;4.70;71.40;;;;;;5013856;28;20597;-77
2022/04/12 02:16:06;;;;;;;1.00;1.00;;;4.70;71.40;;;;;;5010015;28;20192;-77
2022/04/12 02:18:31;;;;;;;1.37;1.20;;;4.70;71.50;;;;;;5011802;28;20900;-77
2022/04/12 02:20:57;;;;;;;3.97;1.03;;;4.70;71.50;;;;;;5013876;28;20177;-77
2022/04/12 02:23:23;;;;;;;1.43;1.10;;;4.70;71.60;;;;;;5011972;28;20263;-76
2022/04/12 02:25:49;;;;;;;1.80;0.70;;;4.60;71.70;;;;;;5013514;28;20745;-77
2022/04/12 02:28:16;;;;;;;1.97;1.00;;;4.60;71.70;;;;;;5012899;28;20748;-77
2022/04/12 02:30:43;;;;;;;0.93;0.93;;;4.60;71.80;;;;;;5012601;28;20685;-77
2022/04/12 02:33:09;;;;;;;1.53;0.50;;;4.50;71.90;;;;;;5011938;28;20213;-78
2022/04/12 02:35:35;;;;;;;1.07;1.07;;;4.50;71.90;;;;;;5013169;28;20789;-77
2022/04/12 02:38:01;;;;;;;2.40;0.97;;;4.50;72.10;;;;;;5017318;28;20188;-79
2022/04/12 02:40:27;;;;;;;1.10;1.00;;;4.40;72.10;;;;;;5012755;28;20679;-78
2022/04/12 02:42:53;;;;;;;1.60;1.10;;;4.30;71.60;;;;;;5015235;28;20216;-78
2022/04/12 02:45:18;;;;;;;0.97;0.83;;;4.30;71.60;;;;;;5014076;28;20296;-78
2022/04/12 02:47:44;;;;;;;1.17;1.17;;;4.20;71.80;;;;;;5015786;28;20577;-78
2022/04/12 02:50:10;;;;;;;2.60;1.30;;;4.20;72.60;;;;;;5015611;28;20680;-79
2022/04/12 02:52:35;;;;;;;1.60;1.23;;;4.20;72.40;;;;;;5011626;28;20188;-78
2022/04/12 02:55:01;;;;;;;3.07;1.20;;;4.10;71.40;;;;;;5011335;28;20196;-78
2022/04/12 02:57:27;;;;;;;0.83;0.83;;;4.10;72.90;;;;;;5007970;28;20184;-79
2022/04/12 02:59:53;;;;;;;1.10;1.10;;;4.00;72.90;;;;;;5012076;28;20953;-79
2022/04/12 03:02:18;;;;;;;1.50;1.40;;;3.90;72.00;;;;;;5012078;28;20188;-78
2022/04/12 03:04:44;;;;;;;2.00;1.00;;;3.90;72.10;;;;;;5011949;28;20195;-78
2022/04/12 03:07:09;;;;;;;1.07;1.07;;;3.80;72.70;;;;;;5010306;28;20212;-78
2022/04/12 03:09:35;;;;;;;3.23;1.40;;;3.80;72.60;;;;;;5011745;28;20264;-79
2022/04/12 03:12:01;;;;;;;1.30;1.20;;;3.70;71.80;;;;;;5013483;28;20185;-78
2022/04/12 03:14:27;;;;;;;1.30;1.20;;;3.70;72.60;;;;;;5018227;28;20216;-78
2022/04/12 03:16:53;;;;;;;2.67;1.30;;;3.60;72.50;;;;;;5012710;28;20184;-78
2022/04/12 03:19:18;;;;;;;1.10;1.10;;;3.60;73.20;;;;;;5011574;28;21472;-78
2022/04/12 03:21:44;;;;;;;2.70;1.17;;;3.50;73.30;;;;;;5012675;28;20537;-78
2022/04/12 03:24:10;;;;;;;2.40;1.33;;;3.50;73.60;;;;;;5015403;28;20184;-78
2022/04/12 03:26:36;;;;;;;0.77;0.77;;;3.50;74.00;;;;;;5011833;28;20189;-77
2022/04/12 03:29:02;;;;;;;2.00;1.20;;;3.40;74.20;;;;;;5015854;28;20187;-78
2022/04/12 03:31:28;;;;;;;1.00;1.00;;;3.40;74.30;;;;;;5009093;28;20346;-78
2022/04/12 03:33:53;;;;;;;1.10;1.10;;;3.40;73.70;;;;;;5007058;28;20705;-78
2022/04/12 03:36:19;;;;;;;1.17;1.10;;;3.30;74.50;;;;;;5009042;28;20765;-76
2022/04/12 03:38:48;;;;;;;4.10;1.03;;;3.30;74.80;;;;;;5012267;28;20253;-77
2022/04/12 03:41:22;;;;;;;1.53;1.43;;;3.20;74.20;;;;;;5012959;28;20215;-78
2022/04/12 03:43:49;;;;;;;1.57;1.57;;;3.20;74.80;;;;;;5007204;28;20275;-78
2022/04/12 03:46:15;;;;;;;3.53;1.40;;;3.20;74.90;;;;;;5016586;28;20188;-79
2022/04/12 03:48:41;;;;;;;1.60;1.50;;;3.10;75.30;;;;;;5016590;28;20662;-79
2022/04/12 03:51:06;;;;;;;2.80;1.67;;;3.10;76.00;;;;;;5015533;28;20257;-79
2022/04/12 03:53:32;;;;;;;1.93;1.53;;;3.10;76.20;;;;;;5014022;28;20219;-80
2022/04/12 03:55:58;;;;;;;1.90;1.80;;;3.00;76.00;;;;;;5004498;28;20185;-78
2022/04/12 03:58:24;;;;;;;3.60;2.20;;;3.00;76.50;;;;;;5007785;28;20199;-78
2022/04/12 04:00:50;;;;;;;2.17;1.73;;;3.00;76.50;;;;;;5009926;28;20816;-78
2022/04/12 04:03:17;;;;;;;1.43;1.43;;;3.00;77.30;;;;;;5007792;28;20849;-77
2022/04/12 04:05:44;;;;;;;2.10;2.00;;;3.00;76.90;;;;;;5016064;28;20194;-78
2022/04/12 04:08:10;;;;;;;2.07;1.83;;;2.90;77.40;;;;;;5014651;28;20204;-78
2022/04/12 04:10:36;;;;;;;3.90;1.37;;;2.90;77.10;;;;;;5018211;28;20233;-78
2022/04/12 04:13:04;;;;;;;2.57;1.70;;;2.80;77.20;;;;;;5016692;28;20215;-78
2022/04/12 04:15:31;;;;;;;1.37;1.27;;;2.80;77.50;;;;;;5014098;28;20207;-78
2022/04/12 04:17:57;;;;;;;3.30;2.10;;;2.80;77.50;;;;;;5016919;28;20188;-77
2022/04/12 04:20:23;;;;;;;1.57;1.17;;;2.80;77.80;;;;;;5018057;28;20177;-78
2022/04/12 04:22:48;;;;;;;1.73;1.60;;;2.80;77.90;;;;;;5018968;28;20187;-78
2022/04/12 04:25:15;;;;;;;2.50;2.27;;;2.80;77.90;;;;;;5019831;28;20681;-77
2022/04/12 04:27:41;;;;;;;1.87;1.70;;;2.80;78.00;;;;;;5018940;28;20215;-78
2022/04/12 04:30:09;;;;;;;1.87;1.77;;;2.80;78.20;;;;;;5018369;28;20639;-78
2022/04/12 04:32:35;;;;;;;4.00;2.10;;;2.90;78.30;;;;;;5020470;28;20185;-78
2022/04/12 04:35:02;;;;;;;4.77;1.77;;;2.90;78.40;;;;;;5018213;28;20275;-79
2022/04/12 04:37:28;;;;;;;4.13;2.33;;;2.90;78.30;;;;;;5014624;28;20188;-79
2022/04/12 04:39:54;;;;;;;2.10;1.83;;;2.90;78.70;;;;;;5018366;28;20187;-78
2022/04/12 04:42:20;;;;;;;2.27;2.10;;;2.90;78.70;;;;;;5013279;28;20696;-80
2022/04/12 04:44:47;;;;;;;2.57;2.13;;;2.90;78.80;;;;;;5013805;28;20177;-77
2022/04/12 04:47:13;;;;;;;2.57;2.40;;;3.00;78.90;;;;;;5013864;28;20205;-78
2022/04/12 04:49:39;;;;;;;4.83;2.30;;;3.00;79.00;;;;;;5016079;28;20242;-78
2022/04/12 04:52:05;;;;;;;3.30;2.90;;;3.00;79.30;;;;;;5015213;28;20188;-77
2022/04/12 04:54:31;;;;;;;5.47;2.33;;;3.00;79.20;;;;;;5011085;28;20274;-77
2022/04/12 04:56:57;;;;;;;2.80;2.63;;;3.00;79.30;;;;;;5016524;28;20193;-77
2022/04/12 04:59:23;;;;;;;2.37;2.17;;;3.10;79.20;;;;;;5013473;28;20674;-76
2022/04/12 05:01:49;;;;;;;4.23;2.10;;;3.10;79.80;;;;;;5008872;28;20195;-75
2022/04/12 05:04:14;;;;;;;2.60;2.27;;;3.10;79.50;;;;;;5010583;28;20192;-75
2022/04/12 05:06:40;;;;;;;2.43;2.23;;;3.10;79.50;;;;;;5010201;28;20222;-76
2022/04/12 05:09:06;;;;;;;2.27;2.17;;;3.20;79.30;;;;;;5013957;28;20185;-78
2022/04/12 05:11:32;;;;;;;4.63;2.43;;;3.20;79.30;;;;;;5011336;28;20185;-77
2022/04/12 05:13:57;;;;;;;3.00;2.43;;;3.30;79.30;;;;;;5007920;28;20220;-77
2022/04/12 05:16:23;;;;;;;2.73;2.53;;;3.30;79.20;;;;;;5013979;28;20189;-77
2022/04/12 05:18:51;;;;;;;2.33;2.13;;;3.40;79.20;;;;;;5013965;28;20256;-76
2022/04/12 05:21:18;;;;;;;3.00;2.77;;;3.40;79.40;;;;;;4999071;28;20241;-76
2022/04/12 05:23:45;;;;;;;2.73;2.37;;;3.50;79.20;;;;;;4996193;28;20308;-76
2022/04/12 05:26:11;;;;;;;6.47;3.03;;;3.50;79.30;;;;;;4993931;28;20197;-75
2022/04/12 05:28:37;;;;;;;2.70;2.60;;;3.60;79.00;;;;;;4995030;28;20196;-75
2022/04/12 05:31:03;;;;;;;2.80;2.60;;;3.70;79.00;;;;;;4997226;28;20655;-74
2022/04/12 05:33:29;;;;;;;3.53;3.23;;;3.70;79.20;;;;;;4994426;28;20296;-75
2022/04/12 05:35:55;;;;;;;4.53;3.50;;;3.80;79.10;;;;;;4999235;28;20190;-74
2022/04/12 05:38:21;;;;;;;5.27;2.87;;;3.90;79.10;;;;;;4996292;28;20732;-76
2022/04/12 05:40:46;;;;;;;5.37;3.20;;;3.90;78.90;;;;;;4994186;28;20268;-75
2022/04/12 05:43:12;;;;;;;3.00;2.70;;;4.00;78.80;;;;;;4997186;28;20960;-75
2022/04/12 05:45:38;;;;;;;2.80;2.60;;;4.10;78.60;;;;;;5001393;28;20189;-75
2022/04/12 05:48:04;;;;;;;6.10;3.10;;;4.20;78.20;;;;;;5000187;28;20583;-75
2022/04/12 05:50:29;;;;;;;3.27;2.97;;;4.20;77.90;;;;;;4995145;28;20177;-75
2022/04/12 05:52:56;;;;;;;2.63;2.43;;;4.30;77.50;;;;;;4994294;28;20186;-74
2022/04/12 05:55:24;;;;;;;3.30;2.63;;;4.30;77.30;;;;;;4995269;28;20205;-75
2022/04/12 05:57:59;;;;;;;2.73;2.40;;;4.40;77.10;;;;;;4994983;28;20178;-76
2022/04/12 06:00:27;;;;;;;2.53;2.33;;;4.50;76.60;;;;;;4995872;28;20691;-74
2022/04/12 06:02:54;;;;;;;3.13;2.87;;;4.60;76.40;;;;;;4997031;28;20211;-75
2022/04/12 06:05:21;;;;;;;4.03;2.63;;;4.60;76.10;;;;;;4995896;28;20206;-76
2022/04/12 06:07:47;;;;;;;3.57;3.00;;;4.70;76.00;;;;;;4996853;28;20670;-75
2022/04/12 06:10:15;;;;;;;3.63;3.43;;;4.80;76.00;;;;;;4999079;28;20680;-76
2022/04/12 06:12:41;;;;;;;3.90;3.30;;;4.80;75.80;;;;;;4998130;28;20195;-76
2022/04/12 06:15:08;;;;;;;3.40;3.10;;;4.90;75.60;;;;;;4998769;28;20188;-76
2022/04/12 06:17:35;;;;;;;11.33;3.77;;;5.00;75.60;;;;;;4994356;28;20184;-75
2022/04/12 06:20:01;;;;;;;3.63;2.97;;;5.00;75.40;;;;;;4997834;28;20277;-75
2022/04/12 06:22:27;;;;;;;4.80;3.73;;;5.10;75.30;;;;;;4995029;28;20223;-74
2022/04/12 06:24:53;;;;;;;3.40;3.20;;;5.20;75.10;;;;;;4995294;28;20208;-75
2022/04/12 06:27:38;;;;;;;4.03;3.00;;;5.20;75.00;;;;;;4992556;28;20189;-75
2022/04/12 06:30:09;;;;;;;6.13;3.47;;;5.30;74.80;;;;;;4994917;28;20213;-75
2022/04/12 06:32:35;;;;;;;2.93;2.70;;;5.40;74.80;;;;;;4992035;28;20249;-74
2022/04/12 06:35:02;;;;;;;2.97;2.43;;;5.40;74.60;;;;;;4989285;28;20220;-75
2022/04/12 06:37:29;;;;;;;3.13;2.33;;;5.50;74.50;;;;;;4987349;28;20177;-75
2022/04/12 06:39:57;;;;;;;3.73;3.10;;;5.50;74.40;;;;;;4989544;28;20243;-75
2022/04/12 06:42:22;;;;;;;3.97;3.63;;;5.60;74.60;;;;;;4990183;28;20177;-75
2022/04/12 06:44:49;;;;;;;5.80;3.37;;;5.70;74.60;;;;;;4989114;28;20195;-75
2022/04/12 06:47:16;;;;;;;3.17;2.97;;;5.80;74.40;;;;;;4989507;28;20194;-76
2022/04/12 06:49:49;;;;;;;3.47;3.13;;;5.80;74.40;;;;;;4985780;28;20277;-76
2022/04/12 06:52:18;;;;;;;4.60;3.43;;;5.90;74.60;;;;;;4989653;28;20193;-74
2022/04/12 06:54:44;;;;;;;3.67;3.37;;;6.00;74.40;;;;;;4988668;28;20218;-75
2022/04/12 06:57:09;;;;;;;3.03;2.83;;;6.00;74.40;;;;;;4990847;28;20188;-76
2022/04/12 06:59:36;;;;;;;3.60;3.30;;;6.10;74.20;;;;;;4990435;28;20272;-74
2022/04/12 07:02:02;;;;;;;3.83;3.53;;;6.20;74.20;;;;;;4985133;28;20205;-75
2022/04/12 07:04:31;;;;;;;4.07;2.93;;;6.20;74.20;;;;;;4992057;28;20200;-75
2022/04/12 07:06:58;;;;;;;4.20;2.97;;;6.30;74.00;;;;;;4988710;28;20188;-75
2022/04/12 07:09:27;;;;;;;3.20;2.70;;;6.40;73.90;;;;;;4990744;28;20319;-75
2022/04/12 07:11:59;;;;;;;5.53;3.90;;;6.50;73.60;;;;;;4989283;28;20189;-76
2022/04/12 07:14:28;;;;;;;5.60;3.00;;;6.50;73.50;;;;;;4991817;28;20364;-76
2022/04/12 07:16:55;;;;;;;2.67;2.47;;;6.60;73.40;;;;;;4989291;28;20200;-75
2022/04/12 07:19:21;;;;;;;4.40;2.93;;;6.70;73.40;;;;;;4985031;28;20592;-75
2022/04/12 07:21:48;;;;;;;4.97;2.83;;;6.80;73.50;;;;;;4990680;28;20185;-75
2022/04/12 07:24:14;;;;;;;3.83;2.77;;;6.90;73.80;;;;;;4994249;28;20186;-76
2022/04/12 07:26:39;;;;;;;3.93;2.67;;;7.00;73.20;;;;;;4982871;28;20258;-75
2022/04/12 07:29:06;;;;;;;3.00;2.63;;;7.10;72.20;;;;;;4992236;28;20214;-76
2022/04/12 07:31:31;;;;;;;3.33;3.03;;;7.20;72.50;;;;;;4990030;28;20527;-75
2022/04/12 07:33:57;;;;;;;4.37;2.93;;;7.30;72.00;;;;;;4992411;28;20217;-75
2022/04/12 07:36:23;;;;;;;2.43;2.23;;;7.40;71.60;;;;;;4993174;28;20569;-75
2022/04/12 07:38:49;;;;;;;1.30;1.20;;;7.50;69.90;;;;;;4991097;28;20235;-76
2022/04/12 07:41:16;;;;;;;1.20;1.20;;;7.50;66.10;;;;;;4987088;28;20243;-75
2022/04/12 07:43:44;;;;;;;0.80;0.80;;;7.50;64.40;;;;;;4989626;28;20220;-76
2022/04/12 07:46:09;;;;;;;1.00;0.90;;;7.50;64.30;;;;;;4990953;28;20240;-75
2022/04/12 07:48:35;;;;;;;0.93;0.63;;;7.60;64.20;;;;;;4992717;28;20181;-75
2022/04/12 07:51:01;;;;;;;0.60;0.60;;;7.70;63.30;;;;;;4993061;28;20197;-76
2022/04/12 07:53:26;;;;;;;1.00;0.90;;;7.80;63.50;;;;;;4987990;28;20209;-76
2022/04/12 07:55:52;;;;;;;1.43;0.90;;;7.90;63.30;;;;;;4987290;28;20177;-75
2022/04/12 07:58:18;;;;;;;1.00;1.00;;;7.90;63.30;;;;;;4991845;28;20978;-76
2022/04/12 08:00:44;;;;;;;0.90;0.90;;;8.10;63.60;;;;;;4989844;28;20259;-76
2022/04/12 08:03:09;;;;;;;1.17;1.17;;;8.20;62.40;;;;;;4989897;28;20299;-76
2022/04/12 08:05:35;;;;;;;1.47;1.23;;;8.30;63.10;;;;;;4987137;28;20613;-75
2022/04/12 08:08:02;;;;;;;1.30;1.20;;;8.40;61.50;;;;;;4992275;28;20193;-76
2022/04/12 08:10:28;;;;;;;0.90;0.90;;;8.40;61.60;;;;;;4989995;28;20201;-76
2022/04/12 08:12:55;;;;;;;0.97;0.70;;;8.60;61.60;;;;;;4987687;28;20189;-76
2022/04/12 08:15:21;;;;;;;0.67;0.67;;;8.70;61.30;;;;;;4988952;28;20186;-75
2022/04/12 08:17:47;;;;;;;0.70;0.70;;;8.70;61.20;;;;;;4991238;28;20181;-76
2022/04/12 08:20:15;;;;;;;0.63;0.63;;;8.70;59.60;;;;;;4995879;28;20188;-76
2022/04/12 08:22:42;;;;;;;0.93;0.93;;;8.70;59.70;;;;;;4989061;28;20272;-76
2022/04/12 08:25:08;;;;;;;2.03;0.83;;;8.90;60.80;;;;;;4988508;28;20189;-75
2022/04/12 08:27:34;;;;;;;2.93;1.00;;;9.10;61.90;;;;;;4994649;28;20201;-75
2022/04/12 08:30:00;;;;;;;1.53;1.00;;;9.20;61.80;;;;;;4993275;28;20177;-75
2022/04/12 08:32:26;;;;;;;3.50;1.27;;;9.30;60.30;;;;;;4986954;28;20248;-74
2022/04/12 08:34:53;;;;;;;0.80;0.80;;;9.40;60.10;;;;;;4987142;28;20676;-74
2022/04/12 08:37:19;;;;;;;3.40;0.77;;;9.50;58.80;;;;;;4986871;28;20209;-74
2022/04/12 08:39:45;;;;;;;1.37;1.27;;;9.60;59.40;;;;;;4990948;28;20217;-75
2022/04/12 08:42:11;;;;;;;1.90;1.20;;;9.70;58.70;;;;;;4988811;28;20341;-75
2022/04/12 08:44:37;;;;;;;0.67;0.67;;;9.90;59.10;;;;;;4987099;28;20192;-75
2022/04/12 08:47:06;;;;;;;1.07;1.07;;;10.10;59.20;;;;;;4989423;28;20830;-75
2022/04/12 08:49:32;;;;;;;4.33;1.00;;;10.30;57.60;;;;;;4991628;28;20201;-76
2022/04/12 08:51:58;;;;;;;1.53;0.67;;;10.40;56.90;;;;;;4985589;28;20248;-76
2022/04/12 08:54:25;;;;;;;0.77;0.67;;;10.50;55.70;;;;;;4987588;28;20633;-75
2022/04/12 08:56:52;;;;;;;1.87;1.17;;;10.70;56.70;;;;;;4994545;28;20685;-76
2022/04/12 08:59:18;;;;;;;1.95;1.05;;;10.90;57.70;;;;;;5011455;28;20229;-75
2022/04/12 09:01:46;;;;;;;0.80;0.80;;;11.40;57.00;;;;;;5012519;28;20185;-75
2022/04/12 09:04:13;;;;;;;1.08;1.08;;;11.70;56.00;;;;;;5015713;28;20334;-77
2022/04/12 09:06:52;;;;;;;0.75;0.75;;;12.30;56.70;;;;;;5007550;28;20264;-76
2022/04/12 09:09:38;;;;;;;0.75;0.75;;;12.90;55.80;;;;;;5008175;28;20200;-76
2022/04/12 09:12:13;;;;;;;3.90;1.00;;;13.50;52.70;;;;;;5006442;28;20279;-74
2022/04/12 09:14:43;;;;;;;1.17;0.73;;;13.90;51.60;;;;;;5013547;28;20714;-75
2022/04/12 09:17:14;;;;;;;1.02;0.70;;;14.20;52.20;;;;;;5014537;28;20673;-75
2022/04/12 09:19:53;;;;;;;0.60;0.60;;;14.70;51.70;;;;;;5015769;28;20745;-75
2022/04/12 09:22:21;;;;;;;0.52;0.52;;;15.30;50.70;;;;;;5013580;28;20185;-74
2022/04/12 09:24:49;;;;;;;4.03;0.77;;;15.70;49.60;;;;;;5015142;28;20196;-74
2022/04/12 09:27:23;;;;;;;0.80;0.80;;;15.90;49.40;;;;;;5012464;28;20189;-74
2022/04/12 09:29:54;;;;;;;0.98;0.85;;;16.30;48.50;;;;;;5011649;28;20199;-74
2022/04/12 09:32:24;;;;;;;1.13;1.08;;;16.40;46.70;;;;;;5012082;28;20930;-74
2022/04/12 09:34:51;;;;;;;1.95;1.08;;;16.30;47.60;;;;;;5014606;28;20213;-74
2022/04/12 09:37:22;;;;;;;0.75;0.75;;;16.50;49.10;;;;;;5015063;28;20176;-74
2022/04/12 09:39:55;;;;;;;0.75;0.75;;;16.90;49.50;;;;;;5011531;28;20231;-74
2022/04/12 09:42:48;;;;;;;0.80;0.80;;;17.60;46.60;;;;;;5002944;28;20304;-73
2022/04/12 09:45:34;;;;;;;0.98;0.80;;;18.00;46.40;;;;;;4989747;28;20206;-74
2022/04/12 09:48:02;;;;;;;0.68;0.60;;;18.20;46.20;;;;;;4988561;28;20231;-74
2022/04/12 09:50:29;;;;;;;2.05;0.80;;;18.30;46.20;;;;;;4989726;28;20189;-74
2022/04/12 09:53:04;;;;;;;0.80;0.80;;;18.60;45.90;;;;;;4991175;28;20185;-74
2022/04/12 09:55:40;;;;;;;0.68;0.68;;;18.80;46.80;;;;;;4991078;28;20177;-74
2022/04/12 09:58:08;;;;;;;0.60;0.60;;;19.30;46.10;;;;;;5007603;28;20235;-73
2022/04/12 10:00:35;;;;;;;1.45;0.80;;;19.80;46.20;;;;;;4990311;28;20177;-73
2022/04/12 10:03:04;;;;;;;0.80;0.73;;;20.30;46.00;;;;;;4989894;28;20206;-74
2022/04/12 10:05:30;;;;;;;0.60;0.60;;;20.80;46.70;;;;;;4991464;28;20284;-74
2022/04/12 10:07:58;;;;;;;1.20;0.60;;;21.40;44.50;;;;;;4993800;28;20191;-74
2022/04/12 10:10:24;;;;;;;0.55;0.55;;;21.60;44.00;;;;;;4974641;28;20694;-74
2022/04/12 10:12:53;;;;;;;1.13;1.13;;;21.40;43.60;;;;;;4992173;28;20209;-75
2022/04/12 10:15:21;;;;;;;1.50;0.80;;;21.40;44.20;;;;;;4992074;28;20300;-74
2022/04/12 10:17:48;;;;;;;0.82;0.82;;;21.60;45.60;;;;;;4989025;28;20185;-74
2022/04/12 10:20:15;;;;;;;1.30;0.80;;;22.00;45.00;;;;;;4989082;28;20193;-74
2022/04/12 10:22:42;;;;;;;0.68;0.68;;;22.50;42.50;;;;;;5007389;28;20283;-74
2022/04/12 10:25:10;;;;;;;0.60;0.60;;;22.90;42.80;;;;;;5007008;28;20236;-74
2022/04/12 10:27:37;;;;;;;0.50;0.50;;;23.20;42.50;;;;;;5010811;28;20184;-74
2022/04/12 10:30:15;;;;;;;0.93;0.60;;;23.60;41.20;;;;;;5009653;28;20236;-74
2022/04/12 10:33:02;;;;;;;1.20;0.52;;;23.90;44.40;;;;;;5012081;28;20185;-74
2022/04/12 10:35:48;;;;;;;0.68;0.63;;;24.50;44.30;;;;;;5011119;28;20197;-74
2022/04/12 10:38:19;;;;;;;0.52;0.52;;;24.90;39.90;;;;;;5013144;28;20191;-74
2022/04/12 10:40:53;;;;;;;1.85;0.60;;;24.80;41.30;;;;;;5015323;28;20287;-74
2022/04/12 10:43:36;;;;;;;0.85;0.63;;;24.90;40.90;;;;;;5012918;28;20277;-75
2022/04/12 10:46:04;;;;;;;0.70;0.60;;;25.10;42.30;;;;;;5009318;28;20181;-75
2022/04/12 10:48:30;;;;;;;0.63;0.50;;;25.50;41.10;;;;;;5010648;28;20188;-75
2022/04/12 10:50:59;;;;;;;0.60;0.60;;;25.80;42.40;;;;;;5011033;28;20177;-74
2022/04/12 10:56:17;;;;;;;0.70;0.70;;;26.60;42.30;;;;;;5013881;28;20662;-75
2022/04/12 10:58:44;;;;;;;0.75;0.40;;;27.00;41.10;;;;;;5014937;28;20196;-75
2022/04/12 11:01:14;;;;;;;0.60;0.60;;;27.30;39.20;;;;;;5012487;28;20903;-75
2022/04/12 11:03:40;;;;;;;0.70;0.70;;;27.70;38.30;;;;;;5012039;28;20621;-75
2022/04/12 11:06:22;;;;;;;1.08;1.08;;;27.60;38.30;;;;;;5011882;28;20205;-75
2022/04/12 11:09:06;;;;;;;0.85;0.80;;;27.80;38.60;;;;;;5011854;28;20184;-76
2022/04/12 11:11:40;;;;;;;0.50;0.50;;;27.80;39.40;;;;;;5011233;28;20838;-76
2022/04/12 11:14:32;;;;;;;1.17;0.30;;;28.00;38.90;;;;;;5006843;28;20219;-75
2022/04/12 11:17:08;;;;;;;0.80;0.40;;;27.90;40.50;;;;;;5008066;28;20640;-75
2022/04/12 11:20:00;;;;;;;1.38;0.40;;;28.00;37.90;;;;;;5007204;28;20326;-77
2022/04/12 11:22:41;;;;;;;0.50;0.50;;;28.10;38.50;;;;;;5004980;28;20719;-76
2022/04/12 11:25:14;;;;;;;0.60;0.60;;;28.30;40.30;;;;;;5010963;28;20189;-75
2022/04/12 11:27:40;;;;;;;0.50;0.50;;;28.70;40.80;;;;;;5010407;28;20180;-75
2022/04/12 11:30:06;;;;;;;0.90;0.90;;;29.00;40.00;;;;;;5015510;28;20192;-75
2022/04/12 11:32:32;;;;;;;0.50;0.50;;;29.30;37.70;;;;;;5016878;28;20192;-75
2022/04/12 11:34:59;;;;;;;0.63;0.43;;;29.60;36.60;;;;;;5012863;28;20543;-76
2022/04/12 11:37:25;;;;;;;1.02;0.38;;;29.80;39.10;;;;;;5010862;28;20185;-76
2022/04/12 11:39:51;;;;;;;0.40;0.40;;;30.00;37.30;;;;;;5009911;28;20824;-75
2022/04/12 11:42:17;;;;;;;0.50;0.40;;;30.00;37.50;;;;;;5008639;28;20300;-77
2022/04/12 11:44:53;;;;;;;0.40;0.40;;;30.10;37.10;;;;;;5012458;28;20655;-75
2022/04/12 11:47:19;;;;;;;0.70;0.70;;;30.30;36.90;;;;;;5005898;28;20177;-76
2022/04/12 11:49:45;;;;;;;0.65;0.40;;;30.50;36.10;;;;;;5013280;28;20193;-77
2022/04/12 11:52:13;;;;;;;0.47;0.47;;;30.60;35.90;;;;;;5007788;28;20185;-76
2022/04/12 11:54:47;;;;;;;0.30;0.30;;;30.70;37.30;;;;;;5009946;28;20212;-76
2022/04/12 11:57:24;;;;;;;0.38;0.38;;;30.80;37.40;;;;;;5024913;28;20671;-76
2022/04/12 11:59:51;;;;;;;0.63;0.50;;;30.70;34.90;;;;;;5006612;28;20766;-75
2022/04/12 12:02:27;;;;;;;0.40;0.40;;;30.70;36.30;;;;;;5016163;28;20183;-76
2022/04/12 12:04:58;;;;;;;1.27;0.50;;;30.70;35.40;;;;;;5016009;28;20192;-76
2022/04/12 12:07:25;;;;;;;0.30;0.30;;;30.80;35.60;;;;;;5009976;28;20214;-76
2022/04/12 12:09:59;;;;;;;1.42;0.60;;;30.70;35.60;;;;;;5011989;28;20741;-76
2022/04/12 12:12:35;;;;;;;0.40;0.40;;;30.60;36.80;;;;;;5012521;28;20208;-76
2022/04/12 12:15:27;;;;;;;0.68;0.52;;;30.80;34.90;;;;;;5012729;28;20227;-75
2022/04/12 12:17:55;;;;;;;0.30;0.30;;;30.80;35.10;;;;;;5010067;28;20276;-75
2022/04/12 12:20:23;;;;;;;0.90;0.40;;;30.80;34.40;;;;;;5004704;28;20180;-75
2022/04/12 12:22:55;;;;;;;0.45;0.45;;;30.70;37.90;;;;;;5010702;28;20235;-75
2022/04/12 12:25:42;;;;;;;1.55;0.47;;;30.80;36.40;;;;;;5013048;28;20271;-75
2022/04/12 12:28:14;;;;;;;1.40;0.40;;;30.70;35.20;;;;;;5009628;28;20192;-76
2022/04/12 12:30:44;;;;;;;0.50;0.50;;;30.90;35.60;;;;;;5015429;28;20277;-76
2022/04/12 12:33:11;;;;;;;0.40;0.40;;;31.10;35.20;;;;;;5015214;28;20192;-76
2022/04/12 12:35:41;;;;;;;0.40;0.40;;;31.50;34.30;;;;;;5013099;28;20177;-76
2022/04/12 12:38:15;;;;;;;0.90;0.40;;;31.60;33.00;;;;;;5016254;28;20181;-76
2022/04/12 12:40:44;;;;;;;0.47;0.47;;;31.10;33.70;;;;;;5014193;28;20175;-75
2022/04/12 12:43:14;;;;;;;0.40;0.40;;;30.90;35.80;;;;;;5016958;28;20187;-75
2022/04/12 12:45:42;;;;;;;0.40;0.40;;;30.70;35.30;;;;;;5014713;28;20193;-76
2022/04/12 12:48:10;;;;;;;0.32;0.32;;;30.60;34.30;;;;;;5009424;28;21251;-76
2022/04/12 12:50:38;;;;;;;0.45;0.30;;;30.30;34.40;;;;;;5015013;28;20184;-76
2022/04/12 12:53:07;;;;;;;0.45;0.45;;;30.20;34.00;;;;;;5017671;28;20188;-75
2022/04/12 12:55:41;;;;;;;0.38;0.38;;;29.80;35.20;;;;;;5001433;28;20300;-75
2022/04/12 12:58:12;;;;;;;0.57;0.57;;;29.50;36.30;;;;;;5010509;28;20249;-74
2022/04/12 13:00:37;;;;;;;0.40;0.40;;;29.50;35.10;;;;;;5015155;28;20209;-73
2022/04/12 13:03:15;;;;;;;2.47;0.50;;;29.60;33.80;;;;;;5014336;28;20771;-75